createdAt,value
2023-04-13T00:00:43.328Z,18.70
2023-04-13T00:03:12.617Z,18.70
2023-04-13T00:05:40.824Z,18.70
2023-04-13T00:08:08.699Z,18.70
2023-04-13T00:10:36.812Z,18.70
2023-04-13T00:13:05.457Z,18.70
2023-04-13T00:15:34.816Z,18.70
2023-04-13T00:18:02.856Z,18.70
2023-04-13T00:20:30.749Z,18.70
2023-04-13T00:22:58.653Z,18.60
2023-04-13T00:25:26.559Z,18.60
2023-04-13T00:27:54.392Z,18.60
2023-04-13T00:30:22.380Z,18.60
2023-04-13T00:32:50.303Z,18.60
2023-04-13T00:35:19.013Z,18.60
2023-04-13T00:37:48.749Z,18.60
2023-04-13T00:40:18.099Z,18.60
2023-04-13T00:42:46.354Z,18.60
2023-04-13T00:45:14.405Z,18.60
2023-04-13T00:47:43.449Z,18.60
2023-04-13T00:50:11.368Z,18.60
2023-04-13T00:52:39.421Z,18.50
2023-04-13T00:55:07.448Z,18.50
2023-04-13T00:57:35.270Z,18.50
2023-04-13T01:00:06.600Z,18.60
2023-04-13T01:02:34.662Z,18.50
2023-04-13T01:05:02.502Z,18.50
2023-04-13T01:07:30.332Z,18.50
2023-04-13T01:09:58.259Z,18.50
2023-04-13T01:12:26.177Z,18.50
2023-04-13T01:14:56.907Z,18.50
2023-04-13T01:17:25.766Z,18.50
2023-04-13T01:19:53.872Z,18.50
2023-04-13T01:22:22.500Z,18.50
2023-04-13T01:24:50.318Z,18.50
2023-04-13T01:27:20.514Z,18.50
2023-04-13T01:29:48.458Z,18.50
2023-04-13T01:32:16.466Z,18.40
2023-04-13T01:34:45.308Z,18.40
2023-04-13T01:37:13.127Z,18.50
2023-04-13T01:39:41.256Z,18.40
2023-04-13T01:42:09.255Z,18.50
2023-04-13T01:44:37.348Z,18.40
2023-04-13T01:47:14.064Z,18.40
2023-04-13T01:49:41.834Z,18.40
2023-04-13T01:52:09.757Z,18.40
2023-04-13T01:54:37.528Z,18.40
2023-04-13T01:57:05.339Z,18.40
2023-04-13T01:59:33.220Z,18.40
2023-04-13T02:02:01.007Z,18.40
2023-04-13T02:04:29.583Z,18.40
2023-04-13T02:06:57.395Z,18.40
2023-04-13T02:09:25.237Z,18.40
2023-04-13T02:11:52.983Z,18.30
2023-04-13T02:14:20.714Z,18.30
2023-04-13T02:16:49.060Z,18.30
2023-04-13T02:19:16.965Z,18.30
2023-04-13T02:21:44.990Z,18.30
2023-04-13T02:24:15.318Z,18.30
2023-04-13T02:26:43.685Z,18.30
2023-04-13T02:29:11.448Z,18.30
2023-04-13T02:31:43.549Z,18.30
2023-04-13T02:34:11.504Z,18.30
2023-04-13T02:36:39.483Z,18.30
2023-04-13T02:39:07.292Z,18.30
2023-04-13T02:41:35.159Z,18.20
2023-04-13T02:44:02.920Z,18.20
2023-04-13T02:46:32.794Z,18.20
2023-04-13T02:49:01.088Z,18.20
2023-04-13T02:51:29.127Z,18.20
2023-04-13T02:53:57.972Z,18.20
2023-04-13T02:56:28.702Z,18.20
2023-04-13T02:58:56.990Z,18.20
2023-04-13T03:01:25.580Z,18.20
2023-04-13T03:03:53.400Z,18.20
2023-04-13T03:06:22.948Z,18.20
2023-04-13T03:08:51.391Z,18.20
2023-04-13T03:11:24.766Z,18.20
2023-04-13T03:13:58.528Z,18.20
2023-04-13T03:16:26.850Z,18.10
2023-04-13T03:18:54.763Z,18.10
2023-04-13T03:21:22.945Z,18.10
2023-04-13T03:23:52.847Z,18.10
2023-04-13T03:26:21.034Z,18.10
2023-04-13T03:28:48.862Z,18.10
2023-04-13T03:31:17.480Z,18.10
2023-04-13T03:33:45.303Z,18.10
2023-04-13T03:36:13.112Z,18.10
2023-04-13T03:38:40.870Z,18.10
2023-04-13T03:41:08.790Z,18.10
2023-04-13T03:43:36.612Z,18.10
2023-04-13T03:46:04.358Z,18.10
2023-04-13T03:48:32.169Z,18.10
2023-04-13T03:51:00.142Z,18.10
2023-04-13T03:53:27.916Z,18.10
2023-04-13T03:55:55.797Z,18.10
2023-04-13T03:58:23.625Z,18.10
2023-04-13T04:00:51.397Z,18.10
2023-04-13T04:03:19.247Z,18.10
2023-04-13T04:05:47.094Z,18.10
2023-04-13T04:08:14.923Z,18.10
2023-04-13T04:10:42.712Z,18.10
2023-04-13T04:13:10.507Z,18.10
2023-04-13T04:15:38.319Z,18.10
2023-04-13T04:18:06.149Z,18.00
2023-04-13T04:20:36.455Z,18.10
2023-04-13T04:23:05.170Z,18.10
2023-04-13T04:25:33.449Z,18.10
2023-04-13T04:28:02.610Z,18.10
2023-04-13T04:30:33.884Z,18.10
2023-04-13T04:33:01.880Z,18.10
2023-04-13T04:35:33.861Z,18.10
2023-04-13T04:38:03.693Z,18.10
2023-04-13T04:40:35.695Z,18.10
2023-04-13T04:43:04.817Z,18.10
2023-04-13T04:45:33.107Z,18.10
2023-04-13T04:48:03.464Z,18.10
2023-04-13T04:50:31.249Z,18.10
2023-04-13T04:52:59.411Z,18.10
2023-04-13T04:55:27.275Z,18.10
2023-04-13T04:57:58.453Z,18.10
2023-04-13T05:00:26.741Z,18.10
2023-04-13T05:02:54.829Z,18.10
2023-04-13T05:05:23.403Z,18.20
2023-04-13T05:07:51.729Z,18.20
2023-04-13T05:10:19.558Z,18.20
2023-04-13T05:12:50.107Z,18.20
2023-04-13T05:15:17.852Z,18.20
2023-04-13T05:17:46.916Z,18.20
2023-04-13T05:20:14.940Z,18.20
2023-04-13T05:22:42.782Z,18.20
2023-04-13T05:25:10.642Z,18.20
2023-04-13T05:27:38.470Z,18.20
2023-04-13T05:30:06.273Z,18.30
2023-04-13T05:32:34.101Z,18.30
2023-04-13T05:35:02.586Z,18.30
2023-04-13T05:37:32.851Z,18.30
2023-04-13T05:40:00.697Z,18.30
2023-04-13T05:42:28.481Z,18.30
2023-04-13T05:44:56.453Z,18.30
2023-04-13T05:47:24.785Z,18.30
2023-04-13T05:49:53.193Z,18.30
2023-04-13T05:52:22.044Z,18.30
2023-04-13T05:54:50.072Z,18.30
2023-04-13T05:57:20.976Z,18.30
2023-04-13T05:59:48.767Z,18.30
2023-04-13T06:02:16.653Z,18.30
2023-04-13T06:04:45.570Z,18.30
2023-04-13T06:07:14.711Z,18.30
2023-04-13T06:09:43.182Z,18.30
2023-04-13T06:12:10.968Z,18.40
2023-04-13T06:14:38.723Z,18.40
2023-04-13T06:17:07.042Z,18.40
2023-04-13T06:19:35.015Z,18.40
2023-04-13T06:22:02.790Z,18.40
2023-04-13T06:24:30.580Z,18.40
2023-04-13T06:26:58.426Z,18.40
2023-04-13T06:29:26.699Z,18.40
2023-04-13T06:31:54.549Z,18.40
2023-04-13T06:34:22.402Z,18.40
2023-04-13T06:36:50.260Z,18.50
2023-04-13T06:39:18.254Z,18.50
2023-04-13T06:41:46.034Z,18.50
2023-04-13T06:44:13.904Z,18.50
2023-04-13T06:46:41.786Z,18.50
2023-04-13T06:49:10.124Z,18.50
2023-04-13T06:51:37.941Z,18.50
2023-04-13T06:54:06.091Z,18.50
2023-04-13T06:56:34.033Z,18.60
2023-04-13T06:59:03.043Z,18.60
2023-04-13T07:01:31.169Z,18.60
2023-04-13T07:04:00.123Z,18.60
2023-04-13T07:06:27.998Z,18.60
2023-04-13T07:08:55.874Z,18.60
2023-04-13T07:11:23.672Z,18.60
2023-04-13T07:13:51.459Z,18.70
2023-04-13T07:16:19.240Z,18.70
2023-04-13T07:18:47.065Z,18.70
2023-04-13T07:21:14.846Z,18.70
2023-04-13T07:23:42.805Z,18.70
2023-04-13T07:26:11.079Z,18.70
2023-04-13T07:28:38.909Z,18.70
2023-04-13T07:31:07.087Z,18.80
2023-04-13T07:33:34.994Z,18.80
2023-04-13T07:36:02.763Z,18.80
2023-04-13T07:38:30.503Z,18.80
2023-04-13T07:40:58.301Z,18.90
2023-04-13T07:43:26.366Z,18.90
2023-04-13T07:45:54.203Z,18.90
2023-04-13T07:48:21.946Z,18.90
2023-04-13T07:50:49.703Z,18.90
2023-04-13T07:53:17.488Z,18.90
2023-04-13T07:55:45.283Z,18.90
2023-04-13T07:58:13.087Z,18.90
2023-04-13T08:00:41.080Z,19.00
2023-04-13T08:03:08.990Z,18.90
2023-04-13T08:05:37.417Z,19.00
2023-04-13T08:08:05.243Z,19.00
2023-04-13T08:10:32.998Z,19.00
2023-04-13T08:13:01.020Z,19.00
2023-04-13T08:15:29.086Z,19.00
2023-04-13T08:17:58.496Z,19.00
2023-04-13T08:20:26.361Z,19.10
2023-04-13T08:22:54.157Z,19.10
2023-04-13T08:25:21.957Z,19.10
2023-04-13T08:27:49.713Z,19.10
2023-04-13T08:30:17.450Z,19.10
2023-04-13T08:32:45.262Z,19.10
2023-04-13T08:35:13.106Z,19.10
2023-04-13T08:37:40.999Z,19.20
2023-04-13T08:40:11.981Z,19.20
2023-04-13T08:42:40.101Z,19.20
2023-04-13T08:45:08.657Z,19.20
2023-04-13T08:47:36.409Z,19.20
2023-04-13T08:50:04.185Z,19.20
2023-04-13T08:52:31.920Z,19.30
2023-04-13T08:55:01.491Z,19.30
2023-04-13T08:57:29.336Z,19.30
2023-04-13T08:59:57.648Z,19.30
2023-04-13T09:02:26.484Z,19.30
2023-04-13T09:04:54.589Z,19.30
2023-04-13T09:07:22.474Z,19.30
2023-04-13T09:09:51.427Z,19.40
2023-04-13T09:12:19.218Z,19.40
2023-04-13T09:14:47.035Z,19.40
2023-04-13T09:17:14.851Z,19.50
2023-04-13T09:19:42.678Z,19.50
2023-04-13T09:22:10.741Z,19.50
2023-04-13T09:24:38.553Z,19.50
2023-04-13T09:27:06.359Z,19.50
2023-04-13T09:29:34.587Z,19.50
2023-04-13T09:32:03.200Z,19.50
2023-04-13T09:34:31.165Z,19.50
2023-04-13T09:37:01.621Z,19.50
2023-04-13T09:39:29.883Z,19.50
2023-04-13T09:41:58.224Z,19.50
2023-04-13T09:44:28.725Z,19.50
2023-04-13T09:46:56.663Z,19.50
2023-04-13T09:49:25.640Z,19.50
2023-04-13T09:51:53.479Z,19.50
2023-04-13T09:54:21.466Z,19.50
2023-04-13T09:56:52.697Z,19.50
2023-04-13T09:59:21.052Z,19.50
2023-04-13T10:01:49.187Z,19.50
2023-04-13T10:04:17.102Z,19.40
2023-04-13T10:06:44.901Z,19.40
2023-04-13T10:09:13.024Z,19.40
2023-04-13T10:11:40.841Z,19.40
2023-04-13T10:14:10.001Z,19.40
2023-04-13T10:16:37.860Z,19.40
2023-04-13T10:19:06.480Z,19.40
2023-04-13T10:21:35.721Z,19.50
2023-04-13T10:24:03.532Z,19.40
2023-04-13T10:26:31.373Z,19.50
2023-04-13T10:28:59.502Z,19.50
2023-04-13T10:31:29.151Z,19.50
2023-04-13T10:33:57.231Z,19.50
2023-04-13T10:36:25.090Z,19.50
2023-04-13T10:38:52.901Z,19.50
2023-04-13T10:41:20.734Z,19.40
2023-04-13T10:43:49.041Z,19.40
2023-04-13T10:46:16.889Z,19.40
2023-04-13T10:48:44.831Z,19.40
2023-04-13T10:51:12.648Z,19.40
2023-04-13T10:53:40.542Z,19.40
2023-04-13T10:56:08.350Z,19.40
2023-04-13T10:58:36.263Z,19.40
2023-04-13T11:01:05.182Z,19.30
2023-04-13T11:03:33.113Z,19.30
2023-04-13T11:06:01.027Z,19.30
2023-04-13T11:08:30.463Z,19.30
2023-04-13T11:10:58.258Z,19.30
2023-04-13T11:13:27.103Z,19.30
2023-04-13T11:15:55.087Z,19.30
2023-04-13T11:18:22.849Z,19.30
2023-04-13T11:20:50.812Z,19.30
2023-04-13T11:23:20.066Z,19.30
2023-04-13T11:25:47.855Z,19.30
2023-04-13T11:28:15.785Z,19.30
2023-04-13T11:30:43.713Z,19.30
2023-04-13T11:33:11.810Z,19.30
2023-04-13T11:35:39.642Z,19.40
2023-04-13T11:38:08.410Z,19.40
2023-04-13T11:40:36.177Z,19.30
2023-04-13T11:43:03.963Z,19.30
2023-04-13T11:45:32.054Z,19.30
2023-04-13T11:47:59.981Z,19.30
2023-04-13T11:50:28.041Z,19.30
2023-04-13T11:52:56.962Z,19.30
2023-04-13T11:55:24.940Z,19.40
2023-04-13T11:57:52.975Z,19.30
2023-04-13T12:00:24.059Z,19.40
2023-04-13T12:05:27.870Z,19.30
2023-04-13T12:07:56.106Z,19.30
2023-04-13T12:10:25.609Z,19.30
2023-04-13T12:13:11.224Z,19.30
2023-04-13T12:16:04.411Z,19.30
2023-04-13T12:18:37.272Z,19.30
2023-04-13T12:21:06.079Z,19.30
2023-04-13T12:23:34.064Z,19.30
2023-04-13T12:26:24.487Z,19.30
2023-04-13T12:28:50.693Z,19.30
2023-04-13T12:31:18.548Z,19.30
2023-04-13T12:33:46.398Z,19.30
2023-04-13T12:36:14.247Z,19.30
2023-04-13T12:38:42.684Z,19.40
2023-04-13T12:41:10.838Z,19.40
2023-04-13T12:43:38.681Z,19.40
2023-04-13T12:46:06.649Z,19.40
2023-04-13T12:48:34.564Z,19.40
2023-04-13T12:51:02.368Z,19.40
2023-04-13T12:53:30.167Z,19.40
2023-04-13T12:55:58.013Z,19.40
2023-04-13T12:58:25.888Z,19.40
2023-04-13T13:00:53.745Z,19.40
2023-04-13T13:03:21.572Z,19.40
2023-04-13T13:05:49.682Z,19.30
2023-04-13T13:08:17.622Z,19.30
2023-04-13T13:10:45.498Z,19.30
2023-04-13T13:13:13.299Z,19.30
2023-04-13T13:15:41.453Z,19.30
2023-04-13T13:18:10.906Z,19.30
2023-04-13T13:20:41.433Z,19.30
2023-04-13T13:23:09.466Z,19.30
2023-04-13T13:25:39.708Z,19.40
2023-04-13T13:28:14.251Z,19.30
2023-04-13T13:30:43.254Z,19.40
2023-04-13T13:33:11.198Z,19.30
2023-04-13T13:35:39.132Z,19.30
2023-04-13T13:38:07.031Z,19.30
2023-04-13T13:40:34.818Z,19.30
2023-04-13T13:43:02.672Z,19.30
2023-04-13T13:45:30.756Z,19.30
2023-04-13T13:47:58.503Z,19.30
2023-04-13T13:50:27.407Z,19.30
2023-04-13T13:53:03.838Z,19.40
2023-04-13T13:55:32.988Z,19.50
2023-04-13T13:58:00.795Z,19.70
2023-04-13T14:00:28.630Z,19.80
2023-04-13T14:02:56.511Z,19.90
2023-04-13T14:05:24.365Z,20.00
2023-04-13T14:07:52.234Z,20.20
2023-04-13T14:10:20.023Z,20.30
2023-04-13T14:12:50.529Z,20.40
2023-04-13T14:15:18.848Z,20.50
2023-04-13T14:17:55.510Z,20.60
2023-04-13T14:20:34.477Z,20.60
2023-04-13T14:23:02.310Z,20.70
2023-04-13T14:25:30.150Z,20.70
2023-04-13T14:27:57.914Z,20.70
2023-04-13T14:30:27.908Z,20.70
2023-04-13T14:32:56.405Z,20.70
2023-04-13T14:35:24.612Z,20.70
2023-04-13T14:37:52.750Z,20.70
2023-04-13T14:40:22.751Z,20.70
2023-04-13T14:42:51.278Z,20.70
2023-04-13T14:45:19.134Z,20.70
2023-04-13T14:47:46.937Z,20.70
2023-04-13T14:50:15.905Z,20.70
2023-04-13T14:52:43.665Z,20.70
2023-04-13T14:55:11.617Z,20.70
2023-04-13T14:57:39.456Z,20.70
2023-04-13T15:00:09.649Z,20.60
2023-04-13T15:02:37.833Z,20.60
2023-04-13T15:05:06.612Z,20.60
2023-04-13T15:07:34.513Z,20.60
2023-04-13T15:10:05.626Z,20.60
2023-04-13T15:12:33.444Z,20.60
2023-04-13T15:15:01.433Z,20.50
2023-04-13T15:17:29.995Z,20.60
2023-04-13T15:19:57.825Z,20.50
2023-04-13T15:22:26.295Z,20.50
2023-04-13T15:24:54.154Z,20.50
2023-04-13T15:27:22.024Z,20.50
2023-04-13T15:29:49.848Z,20.50
2023-04-13T15:32:17.780Z,20.50
2023-04-13T15:34:46.534Z,20.40
2023-04-13T15:37:14.463Z,20.40
2023-04-13T15:39:42.289Z,20.40
2023-04-13T15:42:10.179Z,20.40
2023-04-13T15:44:37.975Z,20.50
2023-04-13T15:47:05.977Z,20.50
2023-04-13T15:49:33.892Z,20.50
2023-04-13T15:52:01.770Z,20.60
2023-04-13T15:54:29.974Z,20.60
2023-04-13T15:56:58.545Z,20.60
2023-04-13T15:59:26.956Z,20.60
2023-04-13T16:01:54.980Z,20.70
2023-04-13T16:04:23.630Z,20.70
2023-04-13T16:07:05.027Z,20.70
2023-04-13T16:09:39.297Z,20.70
2023-04-13T16:12:08.383Z,20.70
2023-04-13T16:14:39.324Z,20.70
2023-04-13T16:17:07.886Z,20.70
2023-04-13T16:19:35.696Z,20.70
2023-04-13T16:22:03.628Z,20.70
2023-04-13T16:24:33.414Z,20.70
2023-04-13T16:27:01.514Z,20.60
2023-04-13T16:29:29.474Z,20.60
2023-04-13T16:31:57.363Z,20.60
2023-04-13T16:34:26.535Z,20.60
2023-04-13T16:36:54.679Z,20.60
2023-04-13T16:39:22.524Z,20.60
2023-04-13T16:41:50.367Z,20.60
2023-04-13T16:44:18.173Z,20.50
2023-04-13T16:46:46.334Z,20.50
2023-04-13T16:49:14.310Z,20.50
2023-04-13T16:51:42.098Z,20.50
2023-04-13T16:54:13.823Z,20.50
2023-04-13T16:56:41.794Z,20.50
2023-04-13T16:59:09.600Z,20.50
2023-04-13T17:01:39.699Z,20.50
2023-04-13T17:04:07.854Z,20.50
2023-04-13T17:06:36.067Z,20.50
2023-04-13T17:09:03.902Z,20.40
2023-04-13T17:11:31.812Z,20.40
2023-04-13T17:13:59.635Z,20.40
2023-04-13T17:16:29.557Z,20.40
2023-04-13T17:18:57.983Z,20.40
2023-04-13T17:21:26.003Z,20.30
2023-04-13T17:23:53.778Z,20.30
2023-04-13T17:26:21.645Z,20.20
2023-04-13T17:28:49.483Z,20.20
2023-04-13T17:31:17.366Z,20.10
2023-04-13T17:33:45.727Z,20.10
2023-04-13T17:36:13.529Z,20.10
2023-04-13T17:38:41.419Z,20.20
2023-04-13T17:41:09.179Z,20.20
2023-04-13T17:43:37.003Z,20.30
2023-04-13T17:46:04.877Z,20.40
2023-04-13T17:48:32.711Z,20.50
2023-04-13T17:51:00.638Z,20.60
2023-04-13T17:53:28.920Z,20.60
2023-04-13T17:55:56.967Z,20.60
2023-04-13T17:58:25.103Z,20.70
2023-04-13T18:00:52.894Z,20.70
2023-04-13T18:03:21.058Z,20.70
2023-04-13T18:05:48.948Z,20.70
2023-04-13T18:08:16.730Z,20.80
2023-04-13T18:10:45.135Z,20.80
2023-04-13T18:13:13.108Z,20.80
2023-04-13T18:15:41.292Z,20.80
2023-04-13T18:18:09.736Z,20.80
2023-04-13T18:20:38.073Z,20.70
2023-04-13T18:23:05.957Z,20.70
2023-04-13T18:25:33.786Z,20.70
2023-04-13T18:28:01.651Z,20.70
2023-04-13T18:30:29.453Z,20.60
2023-04-13T18:32:57.404Z,20.60
2023-04-13T18:35:25.213Z,20.60
2023-04-13T18:37:53.034Z,20.60
2023-04-13T18:40:21.309Z,20.60
2023-04-13T18:42:50.204Z,20.60
2023-04-13T18:45:18.066Z,20.50
2023-04-13T18:47:46.583Z,20.50
2023-04-13T18:50:14.406Z,20.50
2023-04-13T18:52:42.467Z,20.50
2023-04-13T18:55:10.314Z,20.50
2023-04-13T18:57:40.075Z,20.40
2023-04-13T19:00:10.363Z,20.40
2023-04-13T19:02:38.439Z,20.40
2023-04-13T19:05:07.016Z,20.40
2023-04-13T19:07:35.758Z,20.30
2023-04-13T19:10:03.952Z,20.30
2023-04-13T19:12:32.066Z,20.20
2023-04-13T19:14:59.870Z,20.20
2023-04-13T19:17:27.683Z,20.10
2023-04-13T19:19:55.981Z,20.10
2023-04-13T19:22:23.853Z,20.00
2023-04-13T19:24:52.273Z,20.00
2023-04-13T19:27:20.488Z,19.90
2023-04-13T19:29:48.313Z,19.80
2023-04-13T19:32:16.994Z,19.80
2023-04-13T19:34:45.062Z,19.80
2023-04-13T19:37:12.888Z,19.70
2023-04-13T19:39:40.687Z,19.70
2023-04-13T19:42:09.935Z,19.70
2023-04-13T19:44:37.723Z,19.60
2023-04-13T19:47:05.981Z,19.60
2023-04-13T19:49:34.024Z,19.60
2023-04-13T19:52:01.953Z,19.50
2023-04-13T19:54:29.798Z,19.50
2023-04-13T19:56:57.661Z,19.50
2023-04-13T19:59:25.545Z,19.40
2023-04-13T20:01:53.521Z,19.40
2023-04-13T20:04:21.503Z,19.40
2023-04-13T20:06:49.477Z,19.40
2023-04-13T20:09:17.394Z,19.30
2023-04-13T20:11:45.226Z,19.30
2023-04-13T20:14:13.196Z,19.30
2023-04-13T20:16:41.144Z,19.30
2023-04-13T20:19:09.563Z,19.30
2023-04-13T20:21:38.016Z,19.20
2023-04-13T20:24:05.807Z,19.20
2023-04-13T20:26:33.694Z,19.20
2023-04-13T20:29:02.342Z,19.20
2023-04-13T20:31:30.269Z,19.20
2023-04-13T20:33:58.537Z,19.10
2023-04-13T20:36:27.179Z,19.10
2023-04-13T20:38:59.810Z,19.10
2023-04-13T20:41:30.069Z,19.10
2023-04-13T20:43:58.750Z,19.10
2023-04-13T20:46:34.943Z,19.10
2023-04-13T20:49:04.370Z,19.00
2023-04-13T20:51:33.382Z,19.00
2023-04-13T20:54:03.138Z,19.00
2023-04-13T20:56:31.664Z,19.00
2023-04-13T20:59:00.954Z,19.00
2023-04-13T21:01:30.340Z,19.00
2023-04-13T21:03:58.536Z,18.90
2023-04-13T21:06:29.103Z,18.90
2023-04-13T21:08:56.943Z,18.90
2023-04-13T21:11:24.763Z,18.90
2023-04-13T21:13:52.704Z,18.90
2023-04-13T21:16:20.585Z,18.90
2023-04-13T21:18:48.409Z,18.90
2023-04-13T21:21:16.223Z,18.90
2023-04-13T21:23:44.109Z,18.90
2023-04-13T21:26:11.936Z,18.90
2023-04-13T21:28:39.707Z,18.80
2023-04-13T21:31:07.511Z,18.80
2023-04-13T21:33:35.484Z,18.80
2023-04-13T21:38:34.102Z,18.80
2023-04-13T21:41:02.014Z,18.80
2023-04-13T21:43:29.841Z,18.80
2023-04-13T21:45:58.606Z,18.70
2023-04-13T21:48:26.442Z,18.70
2023-04-13T21:50:54.399Z,18.70
2023-04-13T21:53:22.224Z,18.70
2023-04-13T21:55:49.994Z,18.70
2023-04-13T21:58:17.833Z,18.70
2023-04-13T22:00:46.113Z,18.70
2023-04-13T22:03:14.374Z,18.70
2023-04-13T22:05:42.366Z,18.70
2023-04-13T22:08:10.283Z,18.70
2023-04-13T22:10:38.053Z,18.60
2023-04-13T22:13:06.004Z,18.60
2023-04-13T22:15:33.818Z,18.60
2023-04-13T22:18:01.721Z,18.70
2023-04-13T22:20:29.610Z,18.60
2023-04-13T22:22:57.385Z,18.60
2023-04-13T22:25:27.968Z,18.60
2023-04-13T22:27:55.725Z,18.60
2023-04-13T22:30:23.509Z,18.60
2023-04-13T22:32:51.287Z,18.60
2023-04-13T22:35:19.235Z,18.60
2023-04-13T22:37:47.020Z,18.60
2023-04-13T22:40:14.812Z,18.60
2023-04-13T22:42:42.617Z,18.60
2023-04-13T22:45:10.586Z,18.60
2023-04-13T22:47:38.485Z,18.60
2023-04-13T22:50:06.696Z,18.60
2023-04-13T22:52:34.454Z,18.60
2023-04-13T22:55:02.408Z,18.60
2023-04-13T22:57:30.427Z,18.60
2023-04-13T22:59:58.298Z,18.50
2023-04-13T23:02:26.243Z,18.50
2023-04-13T23:04:54.264Z,18.50
2023-04-13T23:07:22.075Z,18.50
2023-04-13T23:09:49.879Z,18.50
2023-04-13T23:12:17.839Z,18.50
2023-04-13T23:14:45.717Z,18.50
2023-04-13T23:17:13.497Z,18.50
2023-04-13T23:19:41.362Z,18.50
2023-04-13T23:22:09.192Z,18.50
2023-04-13T23:24:36.959Z,18.50
2023-04-13T23:27:04.817Z,18.50
2023-04-13T23:29:32.575Z,18.50
2023-04-13T23:32:00.498Z,18.50
2023-04-13T23:34:28.409Z,18.50
2023-04-13T23:36:56.226Z,18.50
2023-04-13T23:39:24.037Z,18.40
2023-04-13T23:41:52.042Z,18.40
2023-04-13T23:44:19.806Z,18.40
2023-04-13T23:46:47.694Z,18.40
2023-04-13T23:49:15.534Z,18.40
2023-04-13T23:51:46.060Z,18.40
2023-04-13T23:54:13.835Z,18.40
2023-04-13T23:56:41.638Z,18.40
2023-04-13T23:59:13.569Z,18.40
